createdAt,value
2022-10-13T00:01:09.250Z,3.70
2022-10-13T00:03:38.553Z,3.50
2022-10-13T00:06:08.249Z,3.60
2022-10-13T00:08:37.297Z,3.72
2022-10-13T00:11:12.063Z,2.95
2022-10-13T00:13:40.930Z,2.92
2022-10-13T00:16:08.990Z,2.70
2022-10-13T00:18:36.696Z,3.28
2022-10-13T00:21:09.197Z,2.92
2022-10-13T00:23:37.587Z,2.90
2022-10-13T00:26:07.801Z,2.97
2022-10-13T00:28:35.759Z,3.03
2022-10-13T00:31:03.677Z,3.20
2022-10-13T00:33:31.482Z,2.85
2022-10-13T00:35:59.498Z,2.60
2022-10-13T00:38:27.342Z,2.72
2022-10-13T00:40:56.846Z,2.80
2022-10-13T00:43:28.024Z,2.80
2022-10-13T00:45:55.712Z,2.53
2022-10-13T00:48:27.089Z,2.50
2022-10-13T00:50:56.217Z,2.55
2022-10-13T00:53:28.549Z,2.45
2022-10-13T00:55:56.691Z,2.10
2022-10-13T00:58:31.596Z,2.70
2022-10-13T01:01:00.818Z,2.65
2022-10-13T01:03:28.702Z,2.47
2022-10-13T01:06:00.363Z,2.17
2022-10-13T01:08:29.817Z,2.40
2022-10-13T01:11:21.180Z,2.40
2022-10-13T01:14:04.498Z,2.35
2022-10-13T01:19:40.317Z,2.53
2022-10-13T01:22:37.454Z,2.70
2022-10-13T01:25:21.585Z,2.95
2022-10-13T01:28:15.823Z,2.38
2022-10-13T01:30:51.544Z,2.78
2022-10-13T01:33:31.944Z,2.35
2022-10-13T01:36:27.234Z,2.33
2022-10-13T01:39:06.679Z,2.58
2022-10-13T01:41:46.741Z,2.45
2022-10-13T01:44:23.516Z,2.95
2022-10-13T01:46:52.861Z,2.80
2022-10-13T01:49:24.618Z,2.50
2022-10-13T01:51:53.441Z,3.15
2022-10-13T01:54:21.118Z,2.80
2022-10-13T01:56:54.594Z,3.00
2022-10-13T01:59:24.565Z,3.05
2022-10-13T02:02:15.664Z,2.70
2022-10-13T02:05:00.632Z,2.92
2022-10-13T02:07:42.406Z,2.90
2022-10-13T02:10:20.565Z,3.13
2022-10-13T02:13:04.856Z,2.60
2022-10-13T02:15:38.334Z,3.28
2022-10-13T02:18:08.156Z,2.97
2022-10-13T02:20:37.065Z,3.00
2022-10-13T02:23:12.049Z,3.17
2022-10-13T02:25:40.720Z,2.95
2022-10-13T02:28:09.641Z,3.38
2022-10-13T02:30:41.081Z,2.90
2022-10-13T02:33:09.713Z,3.10
2022-10-13T02:35:37.622Z,2.78
2022-10-13T02:38:05.725Z,2.97
2022-10-13T02:40:33.290Z,3.20
2022-10-13T02:43:01.355Z,3.90
2022-10-13T02:45:29.468Z,3.13
2022-10-13T02:47:58.383Z,3.13
2022-10-13T02:50:26.848Z,3.20
2022-10-13T02:52:54.897Z,3.38
2022-10-13T02:55:22.893Z,3.20
2022-10-13T02:57:50.755Z,3.30
2022-10-13T03:00:18.837Z,3.35
2022-10-13T03:02:46.758Z,3.10
2022-10-13T03:05:14.969Z,3.65
2022-10-13T03:07:42.930Z,3.85
2022-10-13T03:10:10.779Z,3.30
2022-10-13T03:12:38.816Z,3.28
2022-10-13T03:15:06.670Z,3.38
2022-10-13T03:17:34.094Z,3.80
2022-10-13T03:20:01.833Z,4.10
2022-10-13T03:22:32.613Z,3.92
2022-10-13T03:25:00.361Z,3.90
2022-10-13T03:27:28.522Z,4.45
2022-10-13T03:29:56.565Z,4.00
2022-10-13T03:32:24.853Z,4.05
2022-10-13T03:34:52.685Z,3.75
2022-10-13T03:37:20.185Z,4.68
2022-10-13T03:39:47.872Z,3.80
2022-10-13T03:42:18.837Z,4.53
2022-10-13T03:44:47.013Z,4.47
2022-10-13T03:47:14.809Z,4.15
2022-10-13T03:49:42.633Z,4.10
2022-10-13T03:52:10.380Z,4.55
2022-10-13T03:54:38.041Z,4.75
2022-10-13T03:57:05.681Z,4.47
2022-10-13T03:59:36.764Z,4.43
2022-10-13T04:02:04.965Z,4.28
2022-10-13T04:04:32.621Z,4.72
2022-10-13T04:07:00.536Z,4.68
2022-10-13T04:09:30.184Z,4.35
2022-10-13T04:11:57.852Z,4.45
2022-10-13T04:14:25.798Z,4.40
2022-10-13T04:16:54.452Z,4.75
2022-10-13T04:19:22.353Z,4.22
2022-10-13T04:21:50.045Z,4.65
2022-10-13T04:24:18.203Z,4.10
2022-10-13T04:26:46.601Z,4.88
2022-10-13T04:29:14.353Z,4.18
2022-10-13T04:31:43.967Z,4.40
2022-10-13T04:34:12.258Z,4.63
2022-10-13T04:36:40.086Z,4.88
2022-10-13T04:39:07.748Z,4.68
2022-10-13T04:41:35.413Z,4.68
2022-10-13T04:44:02.900Z,4.85
2022-10-13T04:46:30.999Z,4.38
2022-10-13T04:48:59.133Z,5.00
2022-10-13T04:51:27.645Z,4.80
2022-10-13T04:53:57.312Z,5.35
2022-10-13T04:56:26.075Z,4.55
2022-10-13T04:58:53.900Z,4.65
2022-10-13T05:01:24.138Z,4.80
2022-10-13T05:03:53.715Z,4.22
2022-10-13T05:06:24.897Z,4.65
2022-10-13T05:08:52.549Z,4.88
2022-10-13T05:11:20.839Z,4.15
2022-10-13T05:13:49.382Z,4.57
2022-10-13T05:16:18.865Z,4.43
2022-10-13T05:18:46.556Z,3.95
2022-10-13T05:21:18.876Z,4.43
2022-10-13T05:23:46.894Z,4.72
2022-10-13T05:26:17.280Z,4.80
2022-10-13T05:28:45.758Z,4.90
2022-10-13T05:31:19.218Z,5.15
2022-10-13T05:33:47.265Z,4.95
2022-10-13T05:36:17.250Z,4.82
2022-10-13T05:38:45.597Z,4.95
2022-10-13T05:41:14.641Z,4.82
2022-10-13T05:43:43.006Z,5.68
2022-10-13T05:46:15.664Z,6.35
2022-10-13T05:48:43.407Z,6.53
2022-10-13T05:51:17.715Z,5.88
2022-10-13T05:53:57.666Z,6.25
2022-10-13T05:56:32.051Z,5.80
2022-10-13T05:59:06.234Z,6.70
2022-10-13T06:01:36.951Z,5.80
2022-10-13T06:04:10.154Z,6.78
2022-10-13T06:09:05.636Z,5.82
2022-10-13T06:11:33.378Z,6.20
2022-10-13T06:14:01.272Z,5.90
2022-10-13T06:16:29.288Z,5.55
2022-10-13T06:18:57.883Z,5.95
2022-10-13T06:21:25.689Z,5.40
2022-10-13T06:23:53.598Z,6.10
2022-10-13T06:26:21.589Z,5.40
2022-10-13T06:28:54.460Z,5.13
2022-10-13T06:31:25.025Z,6.35
2022-10-13T06:33:52.915Z,5.43
2022-10-13T06:36:20.994Z,5.38
2022-10-13T06:38:48.948Z,5.10
2022-10-13T06:41:17.314Z,5.43
2022-10-13T06:43:45.609Z,4.88
2022-10-13T06:46:13.713Z,4.97
2022-10-13T06:48:41.522Z,5.25
2022-10-13T06:51:11.836Z,5.15
2022-10-13T06:53:39.703Z,5.32
2022-10-13T06:56:08.266Z,4.75
2022-10-13T06:58:36.988Z,5.15
2022-10-13T07:01:05.828Z,5.07
2022-10-13T07:03:33.858Z,5.10
2022-10-13T07:06:03.753Z,5.38
2022-10-13T07:08:32.048Z,5.50
2022-10-13T07:11:15.946Z,5.90
2022-10-13T07:13:46.979Z,6.13
2022-10-13T07:16:17.263Z,5.50
2022-10-13T07:18:51.155Z,5.22
2022-10-13T07:21:24.015Z,5.07
2022-10-13T07:23:55.060Z,5.53
2022-10-13T07:26:23.685Z,5.53
2022-10-13T07:28:51.083Z,4.50
2022-10-13T07:31:20.249Z,4.40
2022-10-13T07:33:49.806Z,4.40
2022-10-13T07:36:19.072Z,4.35
2022-10-13T07:38:47.866Z,4.30
2022-10-13T07:41:16.173Z,4.00
2022-10-13T07:43:46.774Z,3.70
2022-10-13T07:46:16.417Z,3.20
2022-10-13T07:48:44.978Z,3.63
2022-10-13T07:51:16.064Z,3.47
2022-10-13T07:53:47.812Z,3.55
2022-10-13T07:56:19.027Z,3.90
2022-10-13T07:58:50.249Z,3.53
2022-10-13T08:01:18.273Z,3.40
2022-10-13T08:03:49.893Z,3.90
2022-10-13T08:06:18.741Z,3.90
2022-10-13T08:08:46.290Z,4.00
2022-10-13T08:11:16.719Z,3.70
2022-10-13T08:13:48.989Z,4.00
2022-10-13T08:16:16.806Z,4.18
2022-10-13T08:18:46.183Z,4.20
2022-10-13T08:24:05.032Z,4.68
2022-10-13T08:26:33.189Z,4.55
2022-10-13T08:34:17.381Z,4.22
2022-10-13T08:36:45.268Z,4.55
2022-10-13T08:39:14.097Z,4.28
2022-10-13T08:41:44.196Z,4.72
2022-10-13T08:47:43.782Z,5.60
2022-10-13T08:50:15.861Z,5.30
2022-10-13T08:52:52.866Z,5.00
2022-10-13T08:55:28.141Z,4.53
2022-10-13T08:57:55.782Z,4.80
2022-10-13T09:00:23.694Z,4.53
2022-10-13T09:02:52.234Z,4.75
2022-10-13T09:05:34.115Z,3.78
2022-10-13T09:08:02.588Z,3.92
2022-10-13T09:10:30.242Z,3.72
2022-10-13T09:13:00.821Z,4.10
2022-10-13T09:15:28.542Z,3.90
2022-10-13T09:18:12.469Z,3.30
2022-10-13T09:20:40.964Z,3.60
2022-10-13T09:23:20.192Z,3.55
2022-10-13T09:25:51.158Z,3.22
2022-10-13T09:28:24.746Z,3.22
2022-10-13T09:31:14.717Z,3.22
2022-10-13T09:33:42.492Z,3.20
2022-10-13T09:36:14.011Z,3.33
2022-10-13T09:38:45.400Z,3.20
2022-10-13T09:41:20.173Z,3.08
2022-10-13T09:44:08.965Z,3.00
2022-10-13T09:46:46.263Z,3.30
2022-10-13T09:49:32.238Z,2.90
2022-10-13T09:52:02.644Z,2.97
2022-10-13T09:54:47.556Z,3.10
2022-10-13T09:57:45.988Z,2.70
2022-10-13T10:00:22.306Z,2.67
2022-10-13T10:03:07.710Z,3.22
2022-10-13T10:05:50.829Z,3.20
2022-10-13T10:09:02.203Z,3.15
2022-10-13T10:11:35.365Z,2.83
2022-10-13T10:14:16.002Z,3.28
2022-10-13T10:16:50.362Z,2.80
2022-10-13T10:19:26.634Z,3.60
2022-10-13T10:22:16.280Z,3.70
2022-10-13T10:25:06.515Z,3.50
2022-10-13T10:27:43.829Z,3.53
2022-10-13T10:30:20.554Z,3.58
2022-10-13T10:33:03.860Z,3.00
2022-10-13T10:35:56.222Z,3.28
2022-10-13T10:38:46.560Z,3.20
2022-10-13T10:41:40.813Z,3.30
2022-10-13T10:44:13.077Z,3.20
2022-10-13T10:46:45.823Z,2.80
2022-10-13T10:49:20.604Z,2.60
2022-10-13T10:51:48.681Z,3.28
2022-10-13T10:54:46.678Z,2.90
2022-10-13T10:57:29.697Z,2.47
2022-10-13T11:00:19.520Z,2.50
2022-10-13T11:03:11.662Z,2.65
2022-10-13T11:05:59.635Z,2.70
2022-10-13T11:08:43.855Z,2.97
2022-10-13T11:11:29.295Z,3.25
2022-10-13T11:14:03.131Z,2.97
2022-10-13T11:16:35.448Z,2.47
2022-10-13T11:19:06.132Z,3.03
2022-10-13T11:22:04.660Z,2.78
2022-10-13T11:24:52.339Z,2.33
2022-10-13T11:27:26.647Z,2.50
2022-10-13T11:29:58.119Z,2.80
2022-10-13T11:32:42.389Z,2.88
2022-10-13T11:35:21.099Z,2.63
2022-10-13T11:38:07.971Z,2.55
2022-10-13T11:41:07.786Z,2.30
2022-10-13T11:43:54.770Z,2.28
2022-10-13T11:46:42.491Z,2.25
2022-10-13T11:49:37.418Z,2.35
2022-10-13T11:52:27.302Z,2.47
2022-10-13T11:55:15.197Z,2.80
2022-10-13T11:57:43.184Z,2.40
2022-10-13T12:00:15.847Z,2.10
2022-10-13T12:02:53.679Z,1.98
2022-10-13T12:05:26.217Z,1.95
2022-10-13T12:08:01.697Z,1.95
2022-10-13T12:10:33.702Z,2.20
2022-10-13T12:13:02.382Z,1.83
2022-10-13T12:15:45.065Z,3.22
2022-10-13T12:18:23.872Z,3.17
2022-10-13T12:20:55.380Z,1.98
2022-10-13T12:23:23.413Z,2.20
2022-10-13T12:25:57.529Z,2.05
2022-10-13T12:28:29.216Z,1.90
2022-10-13T12:30:59.717Z,2.28
2022-10-13T12:33:31.898Z,2.38
2022-10-13T12:36:18.040Z,1.98
2022-10-13T12:38:54.243Z,2.30
2022-10-13T12:41:28.663Z,2.17
2022-10-13T12:44:01.072Z,2.00
2022-10-13T12:46:49.685Z,2.05
2022-10-13T12:49:24.215Z,1.80
2022-10-13T12:51:59.034Z,2.03
2022-10-13T12:54:29.685Z,1.83
2022-10-13T12:57:00.914Z,2.00
2022-10-13T12:59:31.149Z,2.33
2022-10-13T13:02:02.256Z,2.63
2022-10-13T13:04:42.227Z,2.10
2022-10-13T13:07:28.700Z,2.13
2022-10-13T13:10:02.329Z,2.15
2022-10-13T13:12:31.552Z,2.20
2022-10-13T13:14:59.914Z,1.85
2022-10-13T13:17:57.704Z,2.42
2022-10-13T13:20:26.366Z,2.08
2022-10-13T13:22:55.763Z,1.90
2022-10-13T13:25:24.278Z,2.00
2022-10-13T13:27:53.075Z,2.47
2022-10-13T13:30:23.583Z,2.10
2022-10-13T13:32:51.712Z,1.85
2022-10-13T13:35:19.488Z,2.40
2022-10-13T13:37:51.262Z,1.75
2022-10-13T13:40:24.449Z,2.60
2022-10-13T13:42:52.425Z,2.00
2022-10-13T13:45:22.120Z,1.58
2022-10-13T13:47:50.572Z,2.55
2022-10-13T13:50:24.551Z,1.63
2022-10-13T13:52:52.550Z,1.75
2022-10-13T13:55:39.539Z,1.75
2022-10-13T13:58:14.520Z,1.52
2022-10-13T14:03:24.558Z,1.73
2022-10-13T14:05:56.165Z,2.00
2022-10-13T14:11:11.721Z,2.00
2022-10-13T14:13:42.230Z,2.00
2022-10-13T14:16:18.420Z,1.90
2022-10-13T14:18:48.598Z,1.95
2022-10-13T14:21:21.899Z,1.63
2022-10-13T14:24:02.105Z,1.98
2022-10-13T14:26:34.925Z,1.48
2022-10-13T14:29:12.065Z,2.40
2022-10-13T14:31:41.158Z,2.50
2022-10-13T14:34:09.455Z,2.70
2022-10-13T14:36:39.837Z,3.03
2022-10-13T14:39:08.369Z,3.30
2022-10-13T14:41:42.700Z,2.97
2022-10-13T14:44:15.882Z,2.70
2022-10-13T14:46:51.913Z,3.00
2022-10-13T14:49:22.166Z,3.20
2022-10-13T14:51:51.206Z,3.17
2022-10-13T14:54:27.969Z,2.88
2022-10-13T14:56:59.806Z,2.65
2022-10-13T14:59:31.161Z,3.40
2022-10-13T15:02:02.721Z,2.80
2022-10-13T15:04:30.331Z,2.83
2022-10-13T15:07:01.639Z,2.90
2022-10-13T15:09:52.025Z,2.53
2022-10-13T15:12:22.032Z,2.80
2022-10-13T15:14:51.015Z,2.83
2022-10-13T15:17:19.384Z,3.00
2022-10-13T15:19:57.858Z,3.20
2022-10-13T15:22:28.407Z,2.97
2022-10-13T15:24:56.856Z,2.83
2022-10-13T15:27:25.564Z,2.78
2022-10-13T15:29:58.901Z,2.85
2022-10-13T15:32:27.247Z,2.65
2022-10-13T15:34:55.610Z,2.53
2022-10-13T15:37:23.633Z,2.50
2022-10-13T15:39:56.234Z,1.90
2022-10-13T15:42:30.068Z,1.90
2022-10-13T15:45:15.571Z,1.90
2022-10-13T15:47:45.799Z,2.05
2022-10-13T15:50:14.134Z,1.95
2022-10-13T15:52:47.777Z,3.88
2022-10-13T15:55:17.554Z,2.72
2022-10-13T15:57:46.110Z,2.00
2022-10-13T16:00:21.306Z,2.20
2022-10-13T16:02:53.481Z,2.22
2022-10-13T16:05:26.829Z,2.03
2022-10-13T16:07:57.456Z,2.67
2022-10-13T16:10:26.634Z,2.50
2022-10-13T16:13:00.411Z,2.40
2022-10-13T16:15:29.902Z,2.53
2022-10-13T16:17:58.378Z,3.03
2022-10-13T16:20:38.333Z,2.28
2022-10-13T16:23:16.480Z,3.08
2022-10-13T16:25:51.890Z,2.80
2022-10-13T16:28:20.541Z,2.75
2022-10-13T16:30:49.011Z,3.45
2022-10-13T16:33:39.012Z,2.80
2022-10-13T16:36:14.829Z,3.20
2022-10-13T16:38:46.444Z,2.95
2022-10-13T16:41:21.307Z,2.60
2022-10-13T16:43:58.678Z,2.80
2022-10-13T16:46:34.167Z,3.30
2022-10-13T16:49:03.519Z,3.70
2022-10-13T16:51:32.881Z,2.70
2022-10-13T16:54:04.434Z,3.00
2022-10-13T16:56:39.088Z,2.80
2022-10-13T16:59:12.694Z,3.28
2022-10-13T17:01:48.884Z,2.85
2022-10-13T17:04:22.003Z,2.53
2022-10-13T17:06:51.835Z,2.80
2022-10-13T17:09:20.687Z,3.15
2022-10-13T17:11:53.997Z,2.83
2022-10-13T17:14:25.477Z,3.03
2022-10-13T17:16:58.117Z,3.00
2022-10-13T17:19:28.716Z,3.33
2022-10-13T17:21:59.385Z,3.90
2022-10-13T17:24:32.163Z,3.58
2022-10-13T17:27:14.440Z,3.17
2022-10-13T17:29:50.163Z,3.42
2022-10-13T17:32:21.560Z,3.10
2022-10-13T17:34:53.396Z,3.20
2022-10-13T17:37:24.103Z,3.33
2022-10-13T17:39:55.156Z,3.13
2022-10-13T17:42:25.494Z,5.35
2022-10-13T17:44:57.808Z,3.20
2022-10-13T17:47:27.730Z,3.53
2022-10-13T17:49:59.908Z,3.70
2022-10-13T17:52:31.187Z,3.65
2022-10-13T17:55:03.413Z,3.40
2022-10-13T17:57:35.578Z,3.70
2022-10-13T18:00:08.174Z,4.05
2022-10-13T18:02:38.259Z,3.53
2022-10-13T18:05:10.433Z,3.20
2022-10-13T18:07:41.027Z,4.07
2022-10-13T18:10:12.110Z,3.38
2022-10-13T18:12:43.340Z,2.95
2022-10-13T18:15:13.710Z,3.58
2022-10-13T18:17:45.169Z,3.17
2022-10-13T18:20:16.167Z,3.42
2022-10-13T18:22:45.496Z,3.13
2022-10-13T18:25:15.353Z,3.80
2022-10-13T18:27:49.118Z,4.00
2022-10-13T18:30:22.512Z,3.78
2022-10-13T18:32:54.719Z,3.58
2022-10-13T18:35:29.934Z,3.63
2022-10-13T18:38:02.663Z,3.85
2022-10-13T18:40:35.294Z,3.70
2022-10-13T18:43:08.705Z,3.78
2022-10-13T18:45:40.107Z,3.58
2022-10-13T18:48:10.588Z,3.53
2022-10-13T18:50:42.108Z,3.75
2022-10-13T18:53:12.125Z,4.40
2022-10-13T18:55:45.018Z,3.72
2022-10-13T18:58:14.871Z,3.88
2022-10-13T19:00:44.822Z,3.45
2022-10-13T19:03:16.096Z,3.47
2022-10-13T19:05:45.994Z,3.30
2022-10-13T19:08:17.257Z,3.35
2022-10-13T19:10:47.552Z,3.65
2022-10-13T19:13:17.400Z,3.65
2022-10-13T19:15:47.496Z,3.30
2022-10-13T19:18:21.691Z,3.40
2022-10-13T19:20:52.212Z,3.45
2022-10-13T19:23:23.717Z,3.30
2022-10-13T19:25:54.239Z,3.90
2022-10-13T19:28:25.187Z,3.75
2022-10-13T19:30:55.600Z,3.38
2022-10-13T19:33:25.651Z,3.50
2022-10-13T19:35:54.634Z,3.85
2022-10-13T19:38:22.613Z,3.40
2022-10-13T19:40:50.144Z,3.70
2022-10-13T19:43:17.908Z,3.63
2022-10-13T19:45:49.233Z,3.92
2022-10-13T19:48:17.336Z,3.83
2022-10-13T19:50:46.105Z,3.78
2022-10-13T19:53:15.491Z,3.72
2022-10-13T19:55:47.088Z,3.67
2022-10-13T19:58:16.981Z,3.67
2022-10-13T20:00:46.082Z,3.70
2022-10-13T20:03:14.905Z,4.28
2022-10-13T20:05:43.632Z,3.72
2022-10-13T20:08:13.317Z,3.80
2022-10-13T20:10:43.073Z,4.85
2022-10-13T20:13:12.765Z,4.28
2022-10-13T20:15:43.647Z,3.67
2022-10-13T20:18:22.540Z,4.35
2022-10-13T20:20:53.824Z,4.05
2022-10-13T20:23:23.149Z,3.78
2022-10-13T20:25:53.420Z,3.92
2022-10-13T20:28:21.280Z,4.03
2022-10-13T20:30:49.570Z,4.45
2022-10-13T20:33:17.831Z,4.32
2022-10-13T20:35:46.026Z,4.03
2022-10-13T20:38:15.422Z,4.60
2022-10-13T20:40:43.633Z,4.57
2022-10-13T20:43:11.545Z,4.68
2022-10-13T20:45:39.800Z,4.22
2022-10-13T20:48:07.592Z,4.75
2022-10-13T20:50:35.294Z,4.65
2022-10-13T20:53:03.987Z,5.05
2022-10-13T20:55:31.917Z,4.20
2022-10-13T20:57:59.689Z,5.00
2022-10-13T21:00:27.644Z,4.93
2022-10-13T21:02:58.828Z,4.68
2022-10-13T21:05:30.784Z,4.78
2022-10-13T21:08:02.902Z,4.93
2022-10-13T21:10:35.213Z,4.50
2022-10-13T21:13:06.771Z,4.53
2022-10-13T21:15:39.784Z,4.63
2022-10-13T21:18:07.903Z,4.63
2022-10-13T21:20:36.672Z,4.70
2022-10-13T21:23:05.776Z,4.53
2022-10-13T21:25:36.003Z,5.00
2022-10-13T21:28:04.260Z,4.55
2022-10-13T21:30:32.485Z,4.90
2022-10-13T21:33:00.307Z,4.60
2022-10-13T21:35:27.954Z,4.97
2022-10-13T21:37:55.940Z,4.50
2022-10-13T21:40:24.367Z,4.57
2022-10-13T21:42:51.950Z,4.68
2022-10-13T21:45:19.970Z,4.93
2022-10-13T21:47:47.722Z,4.55
2022-10-13T21:50:15.687Z,4.38
2022-10-13T21:52:43.569Z,4.00
2022-10-13T21:55:11.077Z,4.43
2022-10-13T21:57:38.792Z,4.60
2022-10-13T22:00:07.009Z,4.50
2022-10-13T22:02:34.753Z,4.60
2022-10-13T22:05:02.564Z,4.22
2022-10-13T22:07:30.708Z,4.90
2022-10-13T22:09:58.498Z,4.30
2022-10-13T22:12:26.169Z,4.55
2022-10-13T22:14:54.105Z,4.22
2022-10-13T22:17:21.943Z,4.72
2022-10-13T22:19:50.372Z,4.75
2022-10-13T22:22:17.902Z,4.50
2022-10-13T22:24:46.717Z,4.50
2022-10-13T22:27:14.391Z,4.07
2022-10-13T22:29:42.213Z,4.25
2022-10-13T22:32:09.941Z,4.32
2022-10-13T22:34:37.802Z,4.10
2022-10-13T22:37:05.502Z,4.65
2022-10-13T22:39:33.274Z,4.57
2022-10-13T22:42:01.139Z,4.82
2022-10-13T22:44:28.894Z,4.60
2022-10-13T22:46:56.273Z,4.57
2022-10-13T22:49:24.033Z,4.68
2022-10-13T22:51:51.877Z,4.65
2022-10-13T22:54:20.260Z,4.90
2022-10-13T22:56:48.025Z,4.50
2022-10-13T22:59:15.760Z,4.57
2022-10-13T23:01:43.453Z,4.75
2022-10-13T23:04:11.361Z,5.03
2022-10-13T23:06:39.382Z,4.97
2022-10-13T23:09:09.633Z,4.90
2022-10-13T23:11:37.462Z,4.50
2022-10-13T23:14:05.320Z,4.82
2022-10-13T23:16:33.280Z,5.18
2022-10-13T23:19:02.334Z,5.07
2022-10-13T23:21:30.785Z,5.18
2022-10-13T23:23:59.839Z,4.78
2022-10-13T23:26:28.793Z,5.15
2022-10-13T23:28:56.957Z,5.30
2022-10-13T23:31:24.798Z,5.20
2022-10-13T23:33:52.948Z,5.70
2022-10-13T23:36:23.409Z,5.40
2022-10-13T23:39:00.087Z,5.70
2022-10-13T23:41:28.677Z,5.22
2022-10-13T23:43:56.869Z,5.40
2022-10-13T23:46:28.053Z,5.95
2022-10-13T23:48:55.920Z,5.30
2022-10-13T23:51:24.622Z,5.65
2022-10-13T23:53:52.938Z,6.40
2022-10-13T23:56:20.943Z,5.13
2022-10-13T23:58:49.495Z,5.82
